createdAt,value
2018-12-30T00:04:00.029Z,53.1
2018-12-30T00:08:58.378Z,53.1
2018-12-30T00:13:56.275Z,53.1
2018-12-30T00:18:54.366Z,53.1
2018-12-30T00:23:52.078Z,53.1
2018-12-30T00:28:50.192Z,53.1
2018-12-30T00:33:48.309Z,53.1
2018-12-30T00:38:46.420Z,53.1
2018-12-30T00:43:44.349Z,53.1
2018-12-30T00:48:41.929Z,53.1
2018-12-30T00:53:40.051Z,53.1
2018-12-30T00:58:38.069Z,53.1
2018-12-30T01:03:35.956Z,53.1
2018-12-30T01:08:33.559Z,53.1
2018-12-30T01:13:31.694Z,53.1
2018-12-30T01:18:29.769Z,53.1
2018-12-30T01:23:28.199Z,53.1
2018-12-30T01:28:26.414Z,53.1
2018-12-30T01:33:24.616Z,53.1
2018-12-30T01:38:22.655Z,53.1
2018-12-30T01:43:20.724Z,53.1
2018-12-30T01:48:18.983Z,53.1
2018-12-30T01:53:17.244Z,53.1
2018-12-30T01:58:15.420Z,53.1
2018-12-30T02:03:13.608Z,53.1
2018-12-30T02:08:11.766Z,53.1
2018-12-30T02:13:09.858Z,53.1
2018-12-30T02:18:07.820Z,53.1
2018-12-30T02:23:05.811Z,53
2018-12-30T02:28:03.412Z,53
2018-12-30T02:33:01.552Z,53
2018-12-30T02:37:59.807Z,53
2018-12-30T02:42:57.724Z,53
2018-12-30T02:47:55.848Z,53
2018-12-30T02:52:54.089Z,53
2018-12-30T02:57:52.447Z,53.1
2018-12-30T03:02:50.735Z,53
2018-12-30T03:07:49.184Z,52.9
2018-12-30T03:12:47.101Z,53
2018-12-30T03:17:45.302Z,53.1
2018-12-30T03:22:43.368Z,53
2018-12-30T03:27:41.626Z,53
2018-12-30T03:32:39.163Z,53
2018-12-30T03:37:37.262Z,53
2018-12-30T03:42:35.205Z,53
2018-12-30T03:47:33.198Z,53
2018-12-30T03:52:31.271Z,53
2018-12-30T03:57:28.607Z,53
2018-12-30T04:02:26.152Z,53
2018-12-30T04:07:24.324Z,53
2018-12-30T04:12:22.442Z,53
2018-12-30T04:17:20.667Z,53
2018-12-30T04:22:18.705Z,53
2018-12-30T04:27:16.783Z,53
2018-12-30T04:32:14.747Z,53
2018-12-30T04:37:12.915Z,53
2018-12-30T04:42:11.063Z,53
2018-12-30T04:47:08.947Z,53
2018-12-30T04:52:07.039Z,53
2018-12-30T04:57:04.775Z,53
2018-12-30T05:02:02.673Z,53
2018-12-30T05:07:00.554Z,53
2018-12-30T05:11:58.611Z,53
2018-12-30T05:16:56.415Z,53
2018-12-30T05:21:54.068Z,53
2018-12-30T05:26:52.172Z,52.9
2018-12-30T05:31:50.181Z,53
2018-12-30T05:36:48.390Z,52.9
2018-12-30T05:41:46.626Z,53
2018-12-30T05:46:44.782Z,53
2018-12-30T05:51:42.844Z,53
2018-12-30T05:56:40.995Z,53
2018-12-30T06:01:39.002Z,52.9
2018-12-30T06:06:37.236Z,53
2018-12-30T06:11:35.324Z,53
2018-12-30T06:16:33.501Z,52.9
2018-12-30T06:21:31.519Z,53
2018-12-30T06:26:29.732Z,53
2018-12-30T06:31:27.898Z,53
2018-12-30T06:36:25.823Z,52.9
2018-12-30T06:41:23.983Z,52.9
2018-12-30T06:46:21.964Z,52.9
2018-12-30T06:51:19.367Z,52.9
2018-12-30T06:56:17.491Z,52.9
2018-12-30T07:01:15.584Z,52.9
2018-12-30T07:06:13.452Z,52.9
2018-12-30T07:11:11.577Z,53
2018-12-30T07:16:08.968Z,53
2018-12-30T07:21:07.197Z,53
2018-12-30T07:26:05.305Z,53
2018-12-30T07:31:02.207Z,52.9
2018-12-30T07:36:00.369Z,52.9
2018-12-30T07:40:58.093Z,53
2018-12-30T07:45:56.073Z,53
2018-12-30T07:50:54.295Z,53
2018-12-30T07:55:52.627Z,53
2018-12-30T08:00:50.683Z,52.9
2018-12-30T08:05:48.810Z,53
2018-12-30T08:10:47.080Z,53
2018-12-30T08:15:45.130Z,53
2018-12-30T08:20:42.806Z,53
2018-12-30T08:25:41.033Z,53
2018-12-30T08:30:39.054Z,53
2018-12-30T08:35:36.810Z,53
2018-12-30T08:40:35.142Z,53
2018-12-30T08:45:33.217Z,53
2018-12-30T08:50:30.996Z,53
2018-12-30T08:55:29.117Z,53
2018-12-30T09:00:27.321Z,53
2018-12-30T09:05:25.264Z,53.1
2018-12-30T09:10:23.394Z,53.1
2018-12-30T09:15:20.877Z,53.1
2018-12-30T09:20:18.772Z,53.1
2018-12-30T09:25:16.832Z,53.1
2018-12-30T09:30:14.499Z,53.1
2018-12-30T09:35:12.579Z,53.1
2018-12-30T09:40:10.536Z,53.2
2018-12-30T09:45:08.732Z,53.2
2018-12-30T09:50:06.895Z,53.2
2018-12-30T09:55:05.280Z,53.2
2018-12-30T10:00:03.245Z,53.2
2018-12-30T10:05:01.028Z,53.2
2018-12-30T10:09:59.244Z,53.2
2018-12-30T10:14:57.494Z,53.2
2018-12-30T10:19:55.595Z,53.2
2018-12-30T10:24:53.518Z,53.2
2018-12-30T10:29:51.782Z,53.2
2018-12-30T10:34:49.837Z,53.2
2018-12-30T10:39:47.526Z,53.2
2018-12-30T10:44:45.542Z,53.2
2018-12-30T10:49:43.666Z,53.3
2018-12-30T10:54:41.116Z,53.3
2018-12-30T10:59:39.400Z,53.3
2018-12-30T11:04:37.320Z,53.3
2018-12-30T11:09:35.364Z,53.3
2018-12-30T11:14:32.897Z,53.2
2018-12-30T11:19:30.363Z,53.3
2018-12-30T11:24:28.547Z,53.3
2018-12-30T11:29:26.803Z,53.3
2018-12-30T11:34:24.849Z,53.3
2018-12-30T11:39:22.683Z,53.3
2018-12-30T11:44:20.850Z,53.3
2018-12-30T11:49:18.856Z,53.3
2018-12-30T11:54:17.129Z,53.3
2018-12-30T11:59:15.436Z,53.3
2018-12-30T12:04:13.542Z,53.2
2018-12-30T12:09:11.494Z,53.3
2018-12-30T12:14:09.715Z,53.3
2018-12-30T12:19:07.739Z,53.3
2018-12-30T12:24:05.944Z,53.3
2018-12-30T12:29:04.116Z,53.3
2018-12-30T12:34:02.128Z,53.3
2018-12-30T12:39:00.357Z,53.3
2018-12-30T12:43:58.475Z,53.3
2018-12-30T12:48:56.559Z,53.3
2018-12-30T12:53:54.719Z,53.3
2018-12-30T12:58:52.848Z,53.3
2018-12-30T13:03:51.176Z,53.3
2018-12-30T13:08:49.430Z,53.3
2018-12-30T13:13:47.683Z,53.3
2018-12-30T13:18:45.906Z,53.3
2018-12-30T13:23:44.096Z,53.3
2018-12-30T13:28:43.025Z,53.3
2018-12-30T13:33:41.067Z,53.3
2018-12-30T13:38:39.206Z,53.3
2018-12-30T13:43:37.399Z,53.3
2018-12-30T13:48:35.970Z,53.3
2018-12-30T13:53:33.638Z,53.2
2018-12-30T13:58:31.815Z,53.3
2018-12-30T14:03:30.190Z,53.3
2018-12-30T14:08:28.429Z,53.3
2018-12-30T14:13:26.581Z,53.3
2018-12-30T14:18:24.741Z,53.4
2018-12-30T14:23:22.919Z,53.4
2018-12-30T14:28:21.406Z,53.4
2018-12-30T14:33:19.576Z,53.4
2018-12-30T14:38:17.553Z,53.4
2018-12-30T14:43:15.889Z,53.4
2018-12-30T14:48:14.253Z,53.4
2018-12-30T14:53:19.563Z,53.5
2018-12-30T14:58:16.976Z,53.4
2018-12-30T15:03:14.964Z,53.4
2018-12-30T15:08:12.984Z,53.5
2018-12-30T15:13:11.247Z,53.5
2018-12-30T15:18:09.556Z,53.5
2018-12-30T15:23:07.839Z,53.6
2018-12-30T15:28:05.930Z,53.6
2018-12-30T15:33:04.138Z,53.6
2018-12-30T15:38:01.922Z,53.6
2018-12-30T15:42:59.973Z,53.6
2018-12-30T15:47:58.429Z,53.6
2018-12-30T15:52:56.240Z,53.6
2018-12-30T15:57:54.344Z,53.6
2018-12-30T16:02:52.470Z,53.6
2018-12-30T16:07:50.733Z,53.6
2018-12-30T16:12:48.967Z,53.6
2018-12-30T16:17:46.810Z,53.6
2018-12-30T16:22:45.077Z,53.6
2018-12-30T16:27:43.207Z,53.6
2018-12-30T16:32:41.389Z,53.6
2018-12-30T16:37:39.627Z,53.6
2018-12-30T16:42:37.736Z,53.6
2018-12-30T16:47:42.298Z,53.7
2018-12-30T16:52:39.164Z,53.5
2018-12-30T16:57:37.412Z,53.6
2018-12-30T17:02:36.037Z,53.6
2018-12-30T17:07:33.898Z,53.5
2018-12-30T17:12:32.388Z,53.5
2018-12-30T17:17:30.312Z,53.5
2018-12-30T17:22:28.515Z,53.5
2018-12-30T17:27:26.836Z,53.5
2018-12-30T17:32:25.029Z,53.5
2018-12-30T17:37:22.699Z,53.5
2018-12-30T17:42:20.877Z,53.5
2018-12-30T17:47:19.123Z,53.5
2018-12-30T17:52:17.153Z,53.5
2018-12-30T17:57:15.417Z,53.5
2018-12-30T18:02:13.655Z,53.5
2018-12-30T18:07:11.757Z,53.4
2018-12-30T18:12:09.676Z,53.4
2018-12-30T18:17:07.366Z,53.4
2018-12-30T18:22:05.569Z,53.4
2018-12-30T18:27:03.444Z,53.4
2018-12-30T18:32:03.103Z,53.4
2018-12-30T18:37:01.023Z,53.4
2018-12-30T18:41:59.311Z,53.3
2018-12-30T18:46:57.608Z,53.4
2018-12-30T18:51:55.246Z,53.4
2018-12-30T18:56:53.352Z,53.4
2018-12-30T19:01:51.174Z,53.3
2018-12-30T19:06:49.350Z,53.4
2018-12-30T19:11:47.472Z,53.4
2018-12-30T19:16:45.681Z,53.3
2018-12-30T19:21:43.811Z,53.3
2018-12-30T19:26:41.980Z,53.3
2018-12-30T19:31:40.102Z,53.3
2018-12-30T19:36:38.278Z,53.3
2018-12-30T19:41:36.405Z,53.3
2018-12-30T19:46:34.461Z,53.3
2018-12-30T19:51:32.854Z,53.3
2018-12-30T19:56:30.968Z,53.3
2018-12-30T20:01:29.022Z,53.4
2018-12-30T20:06:27.269Z,53.3
2018-12-30T20:11:25.518Z,53.3
2018-12-30T20:16:23.526Z,53.3
2018-12-30T20:21:22.717Z,53.3
2018-12-30T20:26:20.703Z,53.3
2018-12-30T20:31:18.539Z,53.2
2018-12-30T20:36:17.096Z,53.2
2018-12-30T20:41:15.125Z,53.2
2018-12-30T20:46:12.888Z,53.2
2018-12-30T20:51:11.092Z,53.2
2018-12-30T20:56:08.818Z,53.2
2018-12-30T21:01:06.822Z,53.2
2018-12-30T21:06:04.632Z,53.2
2018-12-30T21:11:02.512Z,53.2
2018-12-30T21:16:00.646Z,53.2
2018-12-30T21:20:58.797Z,53.2
2018-12-30T21:25:57.013Z,53.2
2018-12-30T21:30:55.083Z,53.2
2018-12-30T21:35:52.803Z,53.2
2018-12-30T21:40:50.668Z,53.2
2018-12-30T21:45:48.922Z,53.2
2018-12-30T21:50:46.369Z,53.2
2018-12-30T21:55:44.664Z,53.2
2018-12-30T22:00:42.219Z,53.2
2018-12-30T22:05:40.411Z,53.2
2018-12-30T22:10:38.566Z,53.2
2018-12-30T22:15:36.815Z,53.2
2018-12-30T22:20:34.688Z,53.1
2018-12-30T22:25:32.795Z,53.2
2018-12-30T22:30:31.020Z,53.1
2018-12-30T22:35:29.123Z,53.1
2018-12-30T22:40:27.255Z,53.1
2018-12-30T22:45:25.335Z,53.1
2018-12-30T22:50:23.499Z,53.1
2018-12-30T22:55:20.994Z,53.1
2018-12-30T23:00:18.978Z,53.1
2018-12-30T23:05:17.238Z,53.1
2018-12-30T23:10:15.189Z,53.1
2018-12-30T23:15:13.494Z,53.1
2018-12-30T23:20:11.646Z,53.1
2018-12-30T23:25:09.818Z,53.1
2018-12-30T23:30:07.656Z,53.1
2018-12-30T23:35:05.767Z,53.1
2018-12-30T23:40:03.945Z,53
2018-12-30T23:45:02.113Z,53.1
2018-12-30T23:49:59.757Z,53
2018-12-30T23:54:57.763Z,53
2018-12-30T23:59:55.939Z,53
